createdAt,value
2023-02-09T00:00:02.565Z,7.07
2023-02-09T00:02:44.445Z,6.60
2023-02-09T00:05:13.205Z,8.43
2023-02-09T00:07:42.123Z,8.23
2023-02-09T00:10:11.227Z,7.27
2023-02-09T00:12:57.216Z,8.77
2023-02-09T00:15:26.929Z,9.00
2023-02-09T00:17:55.403Z,7.57
2023-02-09T00:20:23.945Z,8.80
2023-02-09T00:22:52.190Z,7.90
2023-02-09T00:25:20.631Z,8.63
2023-02-09T00:27:48.821Z,6.77
2023-02-09T00:30:20.182Z,9.23
2023-02-09T00:32:49.837Z,7.57
2023-02-09T00:35:19.081Z,8.03
2023-02-09T00:37:48.456Z,10.60
2023-02-09T00:40:16.771Z,7.60
2023-02-09T00:42:45.077Z,8.10
2023-02-09T00:45:14.042Z,7.00
2023-02-09T00:47:42.375Z,8.50
2023-02-09T00:50:12.233Z,9.30
2023-02-09T00:52:40.467Z,13.13
2023-02-09T00:55:09.119Z,9.07
2023-02-09T00:57:37.325Z,10.70
2023-02-09T01:00:06.599Z,9.00
2023-02-09T01:02:35.009Z,9.83
2023-02-09T01:05:03.704Z,9.27
2023-02-09T01:07:33.442Z,7.53
2023-02-09T01:10:03.023Z,9.50
2023-02-09T01:12:31.818Z,10.10
2023-02-09T01:15:01.933Z,9.37
2023-02-09T01:17:30.201Z,7.77
2023-02-09T01:19:58.515Z,9.50
2023-02-09T01:22:26.796Z,8.07
2023-02-09T01:24:56.706Z,10.77
2023-02-09T01:27:25.254Z,8.03
2023-02-09T01:29:53.893Z,8.77
2023-02-09T01:32:22.175Z,7.63
2023-02-09T01:34:52.217Z,7.50
2023-02-09T01:37:20.862Z,9.07
2023-02-09T01:39:49.643Z,8.43
2023-02-09T01:42:21.414Z,9.00
2023-02-09T01:45:28.220Z,8.93
2023-02-09T01:48:01.569Z,7.10
2023-02-09T01:50:33.789Z,10.60
2023-02-09T01:53:02.576Z,8.23
2023-02-09T01:55:34.594Z,7.60
2023-02-09T01:58:08.781Z,7.53
2023-02-09T02:00:39.172Z,7.57
2023-02-09T02:03:13.069Z,10.70
2023-02-09T02:05:47.154Z,9.60
2023-02-09T02:08:21.660Z,10.70
2023-02-09T02:10:50.548Z,10.63
2023-02-09T02:13:21.789Z,10.10
2023-02-09T02:16:00.345Z,8.83
2023-02-09T02:18:42.519Z,9.30
2023-02-09T02:22:05.724Z,8.07
2023-02-09T02:25:05.042Z,10.00
2023-02-09T02:27:42.763Z,7.73
2023-02-09T02:30:46.976Z,8.50
2023-02-09T02:33:29.383Z,7.90
2023-02-09T02:36:06.529Z,10.07
2023-02-09T02:38:39.329Z,8.37
2023-02-09T02:41:15.673Z,8.80
2023-02-09T02:43:53.849Z,7.60
2023-02-09T02:46:29.436Z,9.77
2023-02-09T02:49:04.710Z,7.70
2023-02-09T02:51:36.978Z,11.00
2023-02-09T02:54:09.204Z,8.80
2023-02-09T02:56:40.403Z,9.03
2023-02-09T02:59:14.100Z,7.23
2023-02-09T03:01:45.123Z,8.03
2023-02-09T03:04:16.591Z,8.00
2023-02-09T03:06:44.949Z,10.20
2023-02-09T03:09:13.427Z,8.53
2023-02-09T03:11:45.653Z,9.87
2023-02-09T03:14:27.682Z,10.47
2023-02-09T03:17:08.856Z,9.30
2023-02-09T03:19:47.145Z,10.70
2023-02-09T03:22:21.930Z,9.13
2023-02-09T03:24:55.743Z,9.07
2023-02-09T03:27:26.338Z,9.30
2023-02-09T03:29:59.185Z,8.87
2023-02-09T03:32:28.987Z,8.03
2023-02-09T03:35:00.021Z,8.63
2023-02-09T03:37:28.411Z,11.63
2023-02-09T03:39:56.730Z,9.10
2023-02-09T03:42:25.106Z,10.03
2023-02-09T03:44:53.477Z,8.57
2023-02-09T03:47:21.776Z,8.50
2023-02-09T03:49:50.181Z,9.00
2023-02-09T03:52:20.032Z,9.37
2023-02-09T03:54:48.895Z,8.30
2023-02-09T03:57:17.226Z,10.20
2023-02-09T03:59:45.593Z,9.17
2023-02-09T04:02:14.725Z,8.73
2023-02-09T04:04:43.493Z,8.90
2023-02-09T04:07:14.998Z,8.90
2023-02-09T04:09:44.707Z,8.07
2023-02-09T04:12:13.121Z,9.70
2023-02-09T04:14:41.436Z,10.73
2023-02-09T04:17:09.789Z,10.23
2023-02-09T04:19:38.026Z,9.70
2023-02-09T04:22:08.226Z,11.27
2023-02-09T04:24:36.653Z,10.50
2023-02-09T04:27:06.297Z,10.10
2023-02-09T04:29:34.664Z,10.63
2023-02-09T04:32:03.308Z,9.57
2023-02-09T04:34:31.686Z,8.93
2023-02-09T04:37:00.107Z,14.37
2023-02-09T04:39:28.663Z,13.60
2023-02-09T04:41:57.100Z,11.30
2023-02-09T04:44:27.119Z,12.20
2023-02-09T04:46:55.366Z,9.97
2023-02-09T04:49:24.074Z,11.27
2023-02-09T04:51:52.399Z,10.00
2023-02-09T04:54:20.841Z,10.13
2023-02-09T04:57:09.199Z,9.83
2023-02-09T04:59:42.042Z,12.90
2023-02-09T05:02:11.822Z,11.80
2023-02-09T05:04:41.147Z,10.30
2023-02-09T05:07:09.593Z,9.97
2023-02-09T05:09:38.580Z,11.33
2023-02-09T05:12:10.559Z,61.23
2023-02-09T05:14:41.191Z,83.53
2023-02-09T05:17:10.108Z,108.37
2023-02-09T05:19:39.186Z,89.10
2023-02-09T05:22:08.233Z,43.33
2023-02-09T05:24:36.845Z,21.87
2023-02-09T05:27:08.974Z,14.30
2023-02-09T05:29:37.851Z,15.20
2023-02-09T05:32:08.122Z,14.27
2023-02-09T05:34:37.680Z,12.30
2023-02-09T05:37:06.188Z,14.33
2023-02-09T05:39:35.986Z,11.17
2023-02-09T05:42:17.915Z,12.60
2023-02-09T05:44:48.250Z,13.17
2023-02-09T05:47:21.634Z,10.53
2023-02-09T05:49:50.346Z,11.93
2023-02-09T05:52:20.444Z,14.60
2023-02-09T05:54:50.537Z,12.13
2023-02-09T05:57:19.146Z,11.47
2023-02-09T05:59:48.639Z,12.80
2023-02-09T06:02:25.258Z,14.57
2023-02-09T06:04:54.872Z,11.00
2023-02-09T06:07:23.645Z,12.60
2023-02-09T06:09:57.273Z,14.40
2023-02-09T06:12:26.672Z,14.80
2023-02-09T06:14:55.975Z,12.77
2023-02-09T06:17:27.109Z,12.30
2023-02-09T06:19:55.879Z,47.23
2023-02-09T06:22:24.293Z,106.87
2023-02-09T06:24:52.894Z,51.40
2023-02-09T06:27:21.330Z,20.93
2023-02-09T06:29:49.627Z,17.97
2023-02-09T06:32:18.188Z,14.57
2023-02-09T06:34:47.998Z,14.20
2023-02-09T06:37:16.513Z,12.63
2023-02-09T06:39:44.982Z,11.50
2023-02-09T06:42:13.321Z,12.50
2023-02-09T06:44:41.767Z,13.37
2023-02-09T06:47:10.313Z,13.33
2023-02-09T06:49:38.636Z,13.10
2023-02-09T06:52:08.748Z,12.37
2023-02-09T06:54:37.148Z,14.23
2023-02-09T06:57:05.518Z,12.57
2023-02-09T06:59:33.998Z,12.60
2023-02-09T07:02:02.452Z,18.20
2023-02-09T07:04:30.882Z,80.53
2023-02-09T07:06:59.266Z,29.17
2023-02-09T07:09:29.490Z,20.10
2023-02-09T07:11:57.985Z,14.97
2023-02-09T07:14:27.278Z,13.27
2023-02-09T07:16:55.805Z,15.00
2023-02-09T07:19:24.353Z,16.10
2023-02-09T07:21:53.028Z,11.63
2023-02-09T07:24:21.481Z,12.67
2023-02-09T07:26:51.530Z,10.77
2023-02-09T07:29:19.937Z,11.83
2023-02-09T07:31:48.731Z,12.80
2023-02-09T07:34:18.022Z,98.47
2023-02-09T07:36:47.899Z,89.50
2023-02-09T07:39:17.055Z,43.70
2023-02-09T07:41:45.794Z,25.90
2023-02-09T07:44:15.724Z,18.20
2023-02-09T07:46:44.321Z,14.43
2023-02-09T07:49:13.293Z,16.43
2023-02-09T07:51:41.813Z,18.30
2023-02-09T07:54:14.833Z,13.73
2023-02-09T07:56:43.717Z,16.00
2023-02-09T07:59:12.724Z,17.50
2023-02-09T08:01:42.631Z,12.70
2023-02-09T08:04:11.102Z,14.47
2023-02-09T08:06:43.210Z,13.00
2023-02-09T08:09:13.485Z,24.93
2023-02-09T08:11:47.887Z,76.77
2023-02-09T08:14:21.702Z,33.50
2023-02-09T08:17:14.010Z,21.73
2023-02-09T08:19:43.006Z,14.40
2023-02-09T08:22:11.576Z,14.40
2023-02-09T08:24:40.067Z,15.77
2023-02-09T08:27:08.632Z,16.93
2023-02-09T08:29:37.014Z,12.60
2023-02-09T08:32:07.181Z,13.47
2023-02-09T08:34:35.715Z,16.27
2023-02-09T08:37:04.437Z,14.23
2023-02-09T08:39:33.012Z,15.63
2023-02-09T08:42:01.835Z,13.60
2023-02-09T08:44:30.866Z,13.40
2023-02-09T08:46:59.490Z,14.10
2023-02-09T08:49:29.528Z,18.60
2023-02-09T08:51:58.258Z,15.37
2023-02-09T08:54:27.033Z,14.27
2023-02-09T08:56:55.467Z,16.80
2023-02-09T08:59:24.481Z,21.80
2023-02-09T09:01:53.554Z,105.20
2023-02-09T09:04:22.128Z,53.33
2023-02-09T09:06:51.956Z,30.57
2023-02-09T09:09:20.351Z,21.83
2023-02-09T09:11:48.921Z,17.67
2023-02-09T09:14:17.445Z,19.10
2023-02-09T09:16:46.043Z,14.30
2023-02-09T09:19:14.676Z,16.40
2023-02-09T09:21:45.400Z,16.10
2023-02-09T09:24:16.378Z,15.23
2023-02-09T09:26:44.848Z,17.10
2023-02-09T09:29:13.310Z,16.33
2023-02-09T09:31:42.158Z,15.27
2023-02-09T09:34:10.852Z,16.67
2023-02-09T09:36:39.324Z,14.17
2023-02-09T09:39:07.822Z,12.33
2023-02-09T09:41:39.172Z,16.17
2023-02-09T09:44:15.306Z,12.50
2023-02-09T09:46:47.224Z,13.00
2023-02-09T09:49:25.944Z,17.13
2023-02-09T09:52:00.156Z,14.07
2023-02-09T09:54:33.372Z,20.23
2023-02-09T09:57:03.907Z,16.27
2023-02-09T09:59:38.815Z,14.43
2023-02-09T10:02:19.830Z,16.20
2023-02-09T10:04:49.500Z,14.60
2023-02-09T10:07:22.256Z,14.73
2023-02-09T10:09:57.024Z,13.37
2023-02-09T10:12:37.419Z,16.50
2023-02-09T10:15:26.521Z,14.40
2023-02-09T10:17:55.335Z,11.80
2023-02-09T10:20:43.767Z,13.10
2023-02-09T10:23:21.245Z,17.20
2023-02-09T10:26:00.912Z,15.90
2023-02-09T10:28:33.012Z,12.87
2023-02-09T10:31:04.339Z,13.93
2023-02-09T10:33:42.109Z,11.30
2023-02-09T10:36:26.197Z,14.67
2023-02-09T10:39:04.792Z,15.57
2023-02-09T10:41:36.159Z,14.07
2023-02-09T10:44:12.978Z,14.40
2023-02-09T10:46:41.982Z,14.63
2023-02-09T10:49:29.112Z,11.60
2023-02-09T10:52:18.286Z,14.00
2023-02-09T10:54:50.716Z,12.60
2023-02-09T10:57:28.806Z,14.50
2023-02-09T11:00:00.438Z,13.10
2023-02-09T11:02:41.290Z,13.07
2023-02-09T11:05:29.075Z,15.37
2023-02-09T11:08:02.446Z,12.77
2023-02-09T11:10:33.813Z,15.70
2023-02-09T11:13:03.443Z,17.70
2023-02-09T11:15:44.909Z,13.30
2023-02-09T11:18:18.187Z,13.53
2023-02-09T11:20:53.582Z,12.23
2023-02-09T11:23:48.002Z,12.10
2023-02-09T11:26:37.798Z,13.40
2023-02-09T11:29:16.532Z,12.07
2023-02-09T11:31:57.655Z,11.33
2023-02-09T11:34:43.516Z,14.93
2023-02-09T11:37:25.403Z,13.30
2023-02-09T11:40:00.783Z,12.17
2023-02-09T11:42:47.759Z,9.00
2023-02-09T11:45:21.897Z,11.43
2023-02-09T11:48:12.198Z,8.80
2023-02-09T11:50:57.863Z,10.23
2023-02-09T11:53:35.000Z,28.97
2023-02-09T11:56:06.253Z,69.20
2023-02-09T11:58:47.106Z,44.53
2023-02-09T12:01:28.907Z,26.20
2023-02-09T12:04:06.528Z,20.30
2023-02-09T12:06:39.690Z,15.67
2023-02-09T12:09:28.250Z,12.77
2023-02-09T12:12:11.671Z,13.00
2023-02-09T12:14:54.789Z,11.20
2023-02-09T12:17:27.477Z,9.30
2023-02-09T12:20:00.448Z,9.97
2023-02-09T12:22:49.680Z,10.23
2023-02-09T12:25:25.462Z,12.80
2023-02-09T12:28:13.915Z,10.13
2023-02-09T12:31:06.730Z,49.67
2023-02-09T12:33:38.257Z,57.93
2023-02-09T12:36:28.501Z,41.30
2023-02-09T12:39:05.482Z,27.80
2023-02-09T12:42:07.881Z,24.37
2023-02-09T12:44:40.258Z,15.20
2023-02-09T12:47:57.531Z,13.50
2023-02-09T12:50:35.266Z,10.20
2023-02-09T12:53:42.957Z,11.27
2023-02-09T12:56:32.465Z,14.50
2023-02-09T12:59:22.219Z,10.80
2023-02-09T13:02:27.928Z,8.73
2023-02-09T13:05:02.970Z,12.90
2023-02-09T13:07:41.261Z,11.27
2023-02-09T13:10:21.336Z,10.20
2023-02-09T13:12:55.950Z,8.87
2023-02-09T13:15:28.125Z,10.70
2023-02-09T13:18:08.016Z,8.47
2023-02-09T13:21:04.552Z,9.63
2023-02-09T13:23:36.222Z,7.33
2023-02-09T13:26:19.483Z,8.60
2023-02-09T13:28:49.464Z,9.43
2023-02-09T13:31:27.439Z,8.87
2023-02-09T13:34:02.764Z,8.37
2023-02-09T13:36:37.012Z,7.67
2023-02-09T13:39:08.902Z,10.53
2023-02-09T13:41:39.209Z,9.23
2023-02-09T13:44:22.944Z,26.90
2023-02-09T13:46:56.673Z,28.33
2023-02-09T13:49:25.971Z,23.93
2023-02-09T13:52:14.150Z,17.03
2023-02-09T13:54:43.410Z,11.87
2023-02-09T13:57:20.254Z,12.00
2023-02-09T13:59:50.217Z,10.03
2023-02-09T14:02:27.395Z,9.03
2023-02-09T14:05:01.034Z,10.90
2023-02-09T14:07:35.100Z,8.23
2023-02-09T14:10:07.881Z,9.90
2023-02-09T14:12:56.776Z,7.57
2023-02-09T14:15:51.175Z,7.53
2023-02-09T14:18:24.314Z,9.23
2023-02-09T14:21:05.072Z,7.30
2023-02-09T14:23:36.760Z,8.23
2023-02-09T14:26:07.511Z,9.30
2023-02-09T14:28:38.368Z,7.23
2023-02-09T14:31:18.288Z,6.63
2023-02-09T14:33:49.460Z,9.73
2023-02-09T14:36:24.126Z,7.67
2023-02-09T14:38:52.709Z,9.03
2023-02-09T14:41:29.450Z,10.87
2023-02-09T14:44:02.942Z,19.50
2023-02-09T14:46:51.270Z,17.10
2023-02-09T14:49:20.190Z,13.03
2023-02-09T14:51:50.100Z,11.70
2023-02-09T14:54:25.049Z,11.40
2023-02-09T14:56:54.690Z,9.33
2023-02-09T14:59:24.160Z,7.80
2023-02-09T15:01:55.478Z,10.83
2023-02-09T15:04:23.880Z,6.67
2023-02-09T15:07:01.751Z,7.63
2023-02-09T15:09:37.389Z,8.90
2023-02-09T15:12:06.505Z,9.63
2023-02-09T15:14:42.204Z,8.93
2023-02-09T15:17:23.627Z,9.03
2023-02-09T15:19:52.608Z,11.80
2023-02-09T15:22:21.740Z,8.93
2023-02-09T15:24:54.209Z,8.63
2023-02-09T15:27:27.640Z,10.90
2023-02-09T15:29:59.752Z,11.20
2023-02-09T15:32:30.375Z,11.00
2023-02-09T15:34:58.881Z,9.27
2023-02-09T15:37:29.494Z,14.87
2023-02-09T15:40:03.200Z,31.37
2023-02-09T15:42:49.321Z,28.30
2023-02-09T15:45:33.861Z,21.27
2023-02-09T15:48:04.654Z,19.40
2023-02-09T15:50:34.997Z,13.17
2023-02-09T15:53:05.321Z,11.93
2023-02-09T15:55:34.857Z,12.93
2023-02-09T15:58:04.207Z,11.37
2023-02-09T16:00:32.884Z,11.93
2023-02-09T16:03:15.861Z,12.23
2023-02-09T16:05:44.621Z,11.07
2023-02-09T16:08:20.359Z,9.93
2023-02-09T16:10:49.402Z,12.40
2023-02-09T16:13:19.357Z,11.33
2023-02-09T16:15:48.424Z,10.47
2023-02-09T16:18:18.328Z,12.83
2023-02-09T16:20:50.949Z,11.30
2023-02-09T16:23:23.102Z,12.83
2023-02-09T16:25:53.588Z,12.40
2023-02-09T16:28:23.013Z,18.70
2023-02-09T16:30:53.686Z,15.87
2023-02-09T16:33:25.172Z,14.93
2023-02-09T16:35:55.846Z,14.20
2023-02-09T16:38:25.903Z,12.60
2023-02-09T16:40:55.864Z,11.10
2023-02-09T16:43:25.472Z,13.50
2023-02-09T16:46:03.438Z,12.50
2023-02-09T16:48:35.682Z,14.10
2023-02-09T16:51:05.011Z,11.70
2023-02-09T16:53:38.183Z,14.13
2023-02-09T16:56:10.283Z,10.80
2023-02-09T16:58:39.623Z,12.00
2023-02-09T17:01:14.209Z,12.80
2023-02-09T17:03:46.785Z,19.53
2023-02-09T17:06:18.465Z,45.70
2023-02-09T17:08:47.402Z,42.43
2023-02-09T17:11:19.293Z,28.73
2023-02-09T17:13:48.254Z,21.00
2023-02-09T17:16:19.533Z,20.60
2023-02-09T17:18:53.171Z,16.93
2023-02-09T17:21:24.411Z,16.50
2023-02-09T17:23:53.711Z,15.07
2023-02-09T17:26:22.396Z,15.13
2023-02-09T17:28:51.482Z,18.63
2023-02-09T17:31:25.866Z,12.90
2023-02-09T17:33:58.050Z,15.37
2023-02-09T17:36:28.846Z,14.17
2023-02-09T17:38:58.867Z,15.47
2023-02-09T17:41:32.844Z,14.20
2023-02-09T17:44:22.370Z,19.30
2023-02-09T17:46:57.401Z,18.63
2023-02-09T17:49:27.252Z,16.03
2023-02-09T17:51:55.915Z,16.60
2023-02-09T17:54:24.390Z,15.70
2023-02-09T17:56:52.994Z,18.67
2023-02-09T17:59:21.636Z,17.40
2023-02-09T18:01:51.148Z,14.20
2023-02-09T18:04:22.138Z,17.30
2023-02-09T18:06:51.937Z,14.73
2023-02-09T18:09:20.487Z,29.40
2023-02-09T18:12:02.105Z,27.27
2023-02-09T18:14:32.801Z,24.30
2023-02-09T18:17:01.455Z,22.97
2023-02-09T18:19:30.047Z,16.40
2023-02-09T18:22:02.193Z,17.10
2023-02-09T18:24:32.710Z,16.27
2023-02-09T18:27:01.694Z,15.97
2023-02-09T18:29:31.370Z,15.20
2023-02-09T18:32:00.829Z,15.10
2023-02-09T18:34:29.842Z,18.10
2023-02-09T18:36:59.777Z,15.50
2023-02-09T18:39:28.372Z,17.87
2023-02-09T18:41:57.542Z,17.57
2023-02-09T18:44:29.287Z,15.47
2023-02-09T18:47:00.446Z,19.67
2023-02-09T18:49:29.028Z,18.30
2023-02-09T18:51:59.295Z,15.70
2023-02-09T18:54:31.164Z,20.53
2023-02-09T18:56:59.521Z,19.17
2023-02-09T18:59:31.731Z,19.03
2023-02-09T19:02:00.853Z,16.33
2023-02-09T19:04:29.718Z,19.00
2023-02-09T19:06:58.197Z,17.90
2023-02-09T19:09:27.968Z,18.87
2023-02-09T19:11:56.495Z,16.50
2023-02-09T19:14:40.176Z,18.73
2023-02-09T19:17:13.329Z,16.17
2023-02-09T19:19:42.256Z,18.30
2023-02-09T19:22:15.094Z,20.20
2023-02-09T19:24:45.860Z,17.60
2023-02-09T19:27:16.958Z,20.40
2023-02-09T19:29:46.500Z,19.67
2023-02-09T19:32:15.822Z,19.97
2023-02-09T19:34:46.023Z,23.23
2023-02-09T19:37:16.493Z,16.93
2023-02-09T19:39:52.902Z,18.23
2023-02-09T19:42:22.423Z,18.10
2023-02-09T19:44:51.135Z,17.87
2023-02-09T19:47:25.632Z,19.50
2023-02-09T19:49:54.818Z,20.00
2023-02-09T19:52:23.562Z,20.30
2023-02-09T19:54:54.090Z,18.77
2023-02-09T19:57:23.321Z,19.13
2023-02-09T19:59:51.878Z,20.30
2023-02-09T20:02:20.293Z,22.83
2023-02-09T20:04:48.752Z,20.80
2023-02-09T20:07:17.220Z,21.60
2023-02-09T20:09:45.722Z,21.23
2023-02-09T20:12:15.583Z,19.63
2023-02-09T20:14:44.054Z,19.47
2023-02-09T20:17:12.449Z,20.40
2023-02-09T20:19:40.912Z,20.73
2023-02-09T20:22:09.435Z,24.20
2023-02-09T20:24:38.177Z,20.77
2023-02-09T20:27:07.864Z,19.10
2023-02-09T20:29:37.977Z,23.33
2023-02-09T20:32:06.752Z,20.93
2023-02-09T20:34:39.100Z,20.77
2023-02-09T20:37:08.495Z,19.53
2023-02-09T20:39:37.174Z,19.47
2023-02-09T20:42:19.898Z,22.57
2023-02-09T20:45:07.469Z,20.57
2023-02-09T20:47:39.749Z,21.10
2023-02-09T20:50:11.609Z,20.87
2023-02-09T20:52:45.647Z,21.70
2023-02-09T20:55:15.022Z,19.03
2023-02-09T20:57:46.043Z,23.27
2023-02-09T21:00:17.932Z,22.30
2023-02-09T21:02:50.027Z,24.73
2023-02-09T21:05:21.710Z,25.27
2023-02-09T21:07:52.816Z,21.67
2023-02-09T21:10:21.379Z,21.43
2023-02-09T21:12:50.101Z,21.20
2023-02-09T21:15:22.882Z,25.90
2023-02-09T21:17:55.124Z,21.97
2023-02-09T21:20:24.107Z,25.40
2023-02-09T21:22:55.275Z,21.80
2023-02-09T21:25:23.823Z,23.33
2023-02-09T21:27:52.389Z,21.93
2023-02-09T21:30:22.663Z,21.27
2023-02-09T21:32:51.131Z,25.33
2023-02-09T21:35:19.800Z,21.77
2023-02-09T21:37:48.400Z,22.33
2023-02-09T21:40:17.323Z,23.07
2023-02-09T21:42:45.891Z,24.63
2023-02-09T21:45:14.401Z,25.60
2023-02-09T21:47:44.183Z,25.33
2023-02-09T21:50:14.239Z,24.10
2023-02-09T21:52:42.649Z,25.30
2023-02-09T21:55:11.044Z,23.63
2023-02-09T21:57:39.552Z,26.03
2023-02-09T22:00:09.752Z,22.67
2023-02-09T22:02:38.512Z,25.10
2023-02-09T22:05:09.803Z,23.30
2023-02-09T22:07:38.284Z,21.90
2023-02-09T22:10:07.504Z,23.63
2023-02-09T22:12:36.530Z,23.33
2023-02-09T22:15:05.276Z,25.67
2023-02-09T22:17:33.657Z,25.03
2023-02-09T22:20:01.977Z,29.13
2023-02-09T22:22:31.879Z,26.10
2023-02-09T22:25:00.280Z,23.73
2023-02-09T22:27:28.785Z,27.37
2023-02-09T22:29:57.159Z,24.47
2023-02-09T22:32:25.518Z,22.03
2023-02-09T22:34:53.755Z,25.70
2023-02-09T22:37:22.163Z,25.57
2023-02-09T22:39:51.917Z,32.03
2023-02-09T22:42:20.253Z,25.10
2023-02-09T22:44:49.184Z,29.00
2023-02-09T22:47:17.505Z,23.70
2023-02-09T22:49:46.891Z,29.20
2023-02-09T22:52:15.251Z,32.53
2023-02-09T22:54:43.581Z,29.90
2023-02-09T22:57:13.245Z,29.17
2023-02-09T22:59:41.535Z,30.93
2023-02-09T23:02:12.400Z,29.30
2023-02-09T23:04:41.125Z,30.07
2023-02-09T23:07:09.564Z,28.47
2023-02-09T23:09:40.085Z,26.13
2023-02-09T23:12:08.528Z,24.80
2023-02-09T23:14:38.521Z,25.13
2023-02-09T23:17:06.813Z,27.30
2023-02-09T23:19:35.371Z,33.73
2023-02-09T23:22:03.825Z,25.13
2023-02-09T23:24:32.157Z,25.83
2023-02-09T23:27:00.488Z,30.17
2023-02-09T23:29:30.722Z,28.30
2023-02-09T23:32:00.510Z,25.10
2023-02-09T23:34:28.978Z,28.13
2023-02-09T23:37:04.946Z,26.30
2023-02-09T23:39:41.681Z,28.87
2023-02-09T23:42:10.152Z,24.93
2023-02-09T23:44:38.711Z,27.00
2023-02-09T23:47:08.465Z,26.97
2023-02-09T23:49:37.082Z,26.90
2023-02-09T23:52:05.488Z,27.30
2023-02-09T23:54:33.813Z,29.33
2023-02-09T23:57:02.248Z,25.10
2023-02-09T23:59:30.621Z,25.90
